sensor_id;sensor_type;location;lat;lon;timestamp;temperature;humidity
18950;DHT22;9608;49.288;8.130;2023-07-09T00:00:25;21.70;99.90
18950;DHT22;9608;49.288;8.130;2023-07-09T00:02:52;21.70;99.90
18950;DHT22;9608;49.288;8.130;2023-07-09T00:05:19;21.70;99.90
18950;DHT22;9608;49.288;8.130;2023-07-09T00:07:46;21.80;99.90
18950;DHT22;9608;49.288;8.130;2023-07-09T00:10:17;21.90;99.90
18950;DHT22;9608;49.288;8.130;2023-07-09T00:12:45;21.90;99.90
18950;DHT22;9608;49.288;8.130;2023-07-09T00:15:13;21.90;99.90
18950;DHT22;9608;49.288;8.130;2023-07-09T00:17:42;21.80;99.90
18950;DHT22;9608;49.288;8.130;2023-07-09T00:20:12;21.70;99.90
18950;DHT22;9608;49.288;8.130;2023-07-09T00:22:40;21.70;99.90
18950;DHT22;9608;49.288;8.130;2023-07-09T00:25:10;21.70;99.90
18950;DHT22;9608;49.288;8.130;2023-07-09T00:27:39;21.60;99.90
18950;DHT22;9608;49.288;8.130;2023-07-09T00:30:09;21.50;99.90
18950;DHT22;9608;49.288;8.130;2023-07-09T00:32:42;21.50;99.90
18950;DHT22;9608;49.288;8.130;2023-07-09T00:35:09;21.60;99.90
18950;DHT22;9608;49.288;8.130;2023-07-09T00:37:37;21.70;99.90
18950;DHT22;9608;49.288;8.130;2023-07-09T00:40:08;21.70;99.90
18950;DHT22;9608;49.288;8.130;2023-07-09T00:42:37;21.70;99.90
18950;DHT22;9608;49.288;8.130;2023-07-09T00:45:17;21.70;99.90
18950;DHT22;9608;49.288;8.130;2023-07-09T00:47:48;21.80;99.90
18950;DHT22;9608;49.288;8.130;2023-07-09T00:50:25;21.90;99.90
18950;DHT22;9608;49.288;8.130;2023-07-09T00:52:56;21.90;99.90
18950;DHT22;9608;49.288;8.130;2023-07-09T00:55:25;22.00;99.90
18950;DHT22;9608;49.288;8.130;2023-07-09T00:57:56;22.00;99.90
18950;DHT22;9608;49.288;8.130;2023-07-09T01:00:32;22.00;99.90
18950;DHT22;9608;49.288;8.130;2023-07-09T01:03:10;22.00;99.90
18950;DHT22;9608;49.288;8.130;2023-07-09T01:05:37;21.80;99.90
18950;DHT22;9608;49.288;8.130;2023-07-09T01:08:05;21.80;99.90
18950;DHT22;9608;49.288;8.130;2023-07-09T01:10:32;21.90;99.90
18950;DHT22;9608;49.288;8.130;2023-07-09T01:12:59;21.90;99.90
18950;DHT22;9608;49.288;8.130;2023-07-09T01:15:26;21.80;99.90
18950;DHT22;9608;49.288;8.130;2023-07-09T01:17:52;21.70;99.90
18950;DHT22;9608;49.288;8.130;2023-07-09T01:20:21;21.70;99.90
18950;DHT22;9608;49.288;8.130;2023-07-09T01:22:50;21.60;99.90
18950;DHT22;9608;49.288;8.130;2023-07-09T01:25:22;21.60;99.90
18950;DHT22;9608;49.288;8.130;2023-07-09T01:27:50;21.50;99.90
18950;DHT22;9608;49.288;8.130;2023-07-09T01:30:19;21.50;99.90
18950;DHT22;9608;49.288;8.130;2023-07-09T01:32:48;21.50;99.90
18950;DHT22;9608;49.288;8.130;2023-07-09T01:35:16;21.40;99.90
18950;DHT22;9608;49.288;8.130;2023-07-09T01:37:44;21.30;99.90
18950;DHT22;9608;49.288;8.130;2023-07-09T01:40:15;21.20;99.90
18950;DHT22;9608;49.288;8.130;2023-07-09T01:42:42;21.00;99.90
18950;DHT22;9608;49.288;8.130;2023-07-09T01:45:09;21.00;99.90
18950;DHT22;9608;49.288;8.130;2023-07-09T01:47:36;20.80;99.90
18950;DHT22;9608;49.288;8.130;2023-07-09T01:50:04;20.90;99.90
18950;DHT22;9608;49.288;8.130;2023-07-09T01:52:32;21.00;99.90
18950;DHT22;9608;49.288;8.130;2023-07-09T01:54:59;21.00;99.90
18950;DHT22;9608;49.288;8.130;2023-07-09T01:57:30;21.10;99.90
18950;DHT22;9608;49.288;8.130;2023-07-09T02:00:02;21.10;99.90
18950;DHT22;9608;49.288;8.130;2023-07-09T02:02:31;21.10;99.90
18950;DHT22;9608;49.288;8.130;2023-07-09T02:04:58;21.00;99.90
18950;DHT22;9608;49.288;8.130;2023-07-09T02:07:26;21.00;99.90
18950;DHT22;9608;49.288;8.130;2023-07-09T02:09:53;21.00;99.90
18950;DHT22;9608;49.288;8.130;2023-07-09T02:12:20;21.10;99.90
18950;DHT22;9608;49.288;8.130;2023-07-09T02:14:48;21.20;99.90
18950;DHT22;9608;49.288;8.130;2023-07-09T02:17:15;21.30;99.90
18950;DHT22;9608;49.288;8.130;2023-07-09T02:19:42;21.30;99.90
18950;DHT22;9608;49.288;8.130;2023-07-09T02:22:10;21.20;99.90
18950;DHT22;9608;49.288;8.130;2023-07-09T02:24:38;21.20;99.90
18950;DHT22;9608;49.288;8.130;2023-07-09T02:27:06;21.00;99.90
18950;DHT22;9608;49.288;8.130;2023-07-09T02:29:33;20.90;99.90
18950;DHT22;9608;49.288;8.130;2023-07-09T02:32:01;20.90;99.90
18950;DHT22;9608;49.288;8.130;2023-07-09T02:34:30;20.90;99.90
18950;DHT22;9608;49.288;8.130;2023-07-09T02:36:58;20.80;99.90
18950;DHT22;9608;49.288;8.130;2023-07-09T02:39:25;20.70;99.90
18950;DHT22;9608;49.288;8.130;2023-07-09T02:41:52;20.70;99.90
18950;DHT22;9608;49.288;8.130;2023-07-09T02:44:19;20.70;99.90
18950;DHT22;9608;49.288;8.130;2023-07-09T02:46:46;20.70;99.90
18950;DHT22;9608;49.288;8.130;2023-07-09T02:49:15;20.60;99.90
18950;DHT22;9608;49.288;8.130;2023-07-09T02:51:42;20.50;99.90
18950;DHT22;9608;49.288;8.130;2023-07-09T02:54:08;20.50;99.90
18950;DHT22;9608;49.288;8.130;2023-07-09T02:56:35;20.40;99.90
18950;DHT22;9608;49.288;8.130;2023-07-09T02:59:02;20.30;99.90
18950;DHT22;9608;49.288;8.130;2023-07-09T03:01:28;20.20;99.90
18950;DHT22;9608;49.288;8.130;2023-07-09T03:03:55;20.10;99.90
18950;DHT22;9608;49.288;8.130;2023-07-09T03:06:24;20.00;99.90
18950;DHT22;9608;49.288;8.130;2023-07-09T03:08:51;19.90;99.90
18950;DHT22;9608;49.288;8.130;2023-07-09T03:11:19;20.10;99.90
18950;DHT22;9608;49.288;8.130;2023-07-09T03:13:47;20.20;99.90
18950;DHT22;9608;49.288;8.130;2023-07-09T03:16:14;20.20;99.90
18950;DHT22;9608;49.288;8.130;2023-07-09T03:18:41;20.20;99.90
18950;DHT22;9608;49.288;8.130;2023-07-09T03:21:08;20.30;99.90
18950;DHT22;9608;49.288;8.130;2023-07-09T03:23:36;20.20;99.90
18950;DHT22;9608;49.288;8.130;2023-07-09T03:26:03;20.20;99.90
18950;DHT22;9608;49.288;8.130;2023-07-09T03:28:30;20.00;99.90
18950;DHT22;9608;49.288;8.130;2023-07-09T03:30:58;20.00;99.90
18950;DHT22;9608;49.288;8.130;2023-07-09T03:33:25;19.90;99.90
18950;DHT22;9608;49.288;8.130;2023-07-09T03:35:52;19.90;99.90
18950;DHT22;9608;49.288;8.130;2023-07-09T03:38:19;20.00;99.90
18950;DHT22;9608;49.288;8.130;2023-07-09T03:40:50;20.20;99.90
18950;DHT22;9608;49.288;8.130;2023-07-09T03:43:17;20.20;99.90
18950;DHT22;9608;49.288;8.130;2023-07-09T03:45:46;20.30;99.90
18950;DHT22;9608;49.288;8.130;2023-07-09T03:48:14;20.40;99.90
18950;DHT22;9608;49.288;8.130;2023-07-09T03:50:43;20.40;99.90
18950;DHT22;9608;49.288;8.130;2023-07-09T03:53:09;20.50;99.90
18950;DHT22;9608;49.288;8.130;2023-07-09T03:55:36;20.60;99.90
18950;DHT22;9608;49.288;8.130;2023-07-09T03:58:05;20.70;99.90
18950;DHT22;9608;49.288;8.130;2023-07-09T04:00:32;20.80;99.90
18950;DHT22;9608;49.288;8.130;2023-07-09T04:03:00;20.90;99.90
18950;DHT22;9608;49.288;8.130;2023-07-09T04:05:27;21.00;99.90
18950;DHT22;9608;49.288;8.130;2023-07-09T04:07:54;21.20;99.90
18950;DHT22;9608;49.288;8.130;2023-07-09T04:10:22;21.30;99.90
18950;DHT22;9608;49.288;8.130;2023-07-09T04:12:48;21.50;99.90
18950;DHT22;9608;49.288;8.130;2023-07-09T04:15:16;21.70;99.90
18950;DHT22;9608;49.288;8.130;2023-07-09T04:17:43;21.90;99.90
18950;DHT22;9608;49.288;8.130;2023-07-09T04:20:11;22.20;99.90
18950;DHT22;9608;49.288;8.130;2023-07-09T04:22:38;22.40;99.90
18950;DHT22;9608;49.288;8.130;2023-07-09T04:25:06;22.70;99.90
18950;DHT22;9608;49.288;8.130;2023-07-09T04:27:35;23.00;99.90
18950;DHT22;9608;49.288;8.130;2023-07-09T04:30:03;23.20;99.90
18950;DHT22;9608;49.288;8.130;2023-07-09T04:32:32;23.50;99.90
18950;DHT22;9608;49.288;8.130;2023-07-09T04:34:58;23.80;99.90
18950;DHT22;9608;49.288;8.130;2023-07-09T04:37:25;24.00;99.90
18950;DHT22;9608;49.288;8.130;2023-07-09T04:39:52;24.40;99.90
18950;DHT22;9608;49.288;8.130;2023-07-09T04:42:18;24.50;99.90
18950;DHT22;9608;49.288;8.130;2023-07-09T04:44:46;24.90;99.90
18950;DHT22;9608;49.288;8.130;2023-07-09T04:47:12;25.30;99.90
18950;DHT22;9608;49.288;8.130;2023-07-09T04:49:41;25.50;99.90
18950;DHT22;9608;49.288;8.130;2023-07-09T04:52:08;25.80;99.90
18950;DHT22;9608;49.288;8.130;2023-07-09T04:54:39;25.90;99.90
18950;DHT22;9608;49.288;8.130;2023-07-09T04:57:06;26.20;99.90
18950;DHT22;9608;49.288;8.130;2023-07-09T04:59:33;26.30;99.90
18950;DHT22;9608;49.288;8.130;2023-07-09T05:01:59;26.50;99.90
18950;DHT22;9608;49.288;8.130;2023-07-09T05:04:26;26.80;99.90
18950;DHT22;9608;49.288;8.130;2023-07-09T05:06:54;27.00;99.90
18950;DHT22;9608;49.288;8.130;2023-07-09T05:09:21;27.10;99.90
18950;DHT22;9608;49.288;8.130;2023-07-09T05:11:49;27.00;99.90
18950;DHT22;9608;49.288;8.130;2023-07-09T05:14:16;26.90;99.90
18950;DHT22;9608;49.288;8.130;2023-07-09T05:16:43;27.00;99.90
18950;DHT22;9608;49.288;8.130;2023-07-09T05:19:11;26.90;99.90
18950;DHT22;9608;49.288;8.130;2023-07-09T05:21:37;27.00;99.90
18950;DHT22;9608;49.288;8.130;2023-07-09T05:24:06;27.20;99.90
18950;DHT22;9608;49.288;8.130;2023-07-09T05:26:33;27.50;99.90
18950;DHT22;9608;49.288;8.130;2023-07-09T05:28:59;27.80;99.90
18950;DHT22;9608;49.288;8.130;2023-07-09T05:31:26;27.80;99.90
18950;DHT22;9608;49.288;8.130;2023-07-09T05:33:53;28.00;99.90
18950;DHT22;9608;49.288;8.130;2023-07-09T05:36:19;28.10;99.90
18950;DHT22;9608;49.288;8.130;2023-07-09T05:38:46;28.20;99.90
18950;DHT22;9608;49.288;8.130;2023-07-09T05:41:15;28.20;99.90
18950;DHT22;9608;49.288;8.130;2023-07-09T05:43:42;28.30;99.90
18950;DHT22;9608;49.288;8.130;2023-07-09T05:46:10;28.40;99.90
18950;DHT22;9608;49.288;8.130;2023-07-09T05:48:37;28.50;99.90
18950;DHT22;9608;49.288;8.130;2023-07-09T05:51:04;28.30;99.90
18950;DHT22;9608;49.288;8.130;2023-07-09T05:53:30;28.30;99.90
18950;DHT22;9608;49.288;8.130;2023-07-09T05:55:59;28.30;99.90
18950;DHT22;9608;49.288;8.130;2023-07-09T05:58:27;28.30;99.90
18950;DHT22;9608;49.288;8.130;2023-07-09T06:00:54;28.30;99.90
18950;DHT22;9608;49.288;8.130;2023-07-09T06:03:23;28.30;99.90
18950;DHT22;9608;49.288;8.130;2023-07-09T06:05:51;28.20;99.90
18950;DHT22;9608;49.288;8.130;2023-07-09T06:08:17;27.90;99.90
18950;DHT22;9608;49.288;8.130;2023-07-09T06:10:51;27.90;99.90
18950;DHT22;9608;49.288;8.130;2023-07-09T06:13:19;27.90;99.90
18950;DHT22;9608;49.288;8.130;2023-07-09T06:15:47;27.70;99.90
18950;DHT22;9608;49.288;8.130;2023-07-09T06:18:14;27.80;99.90
18950;DHT22;9608;49.288;8.130;2023-07-09T06:20:45;27.90;99.90
18950;DHT22;9608;49.288;8.130;2023-07-09T06:23:12;28.20;99.90
18950;DHT22;9608;49.288;8.130;2023-07-09T06:25:39;28.30;99.90
18950;DHT22;9608;49.288;8.130;2023-07-09T06:28:05;28.10;99.90
18950;DHT22;9608;49.288;8.130;2023-07-09T06:30:32;28.20;99.90
18950;DHT22;9608;49.288;8.130;2023-07-09T06:33:00;28.20;99.90
18950;DHT22;9608;49.288;8.130;2023-07-09T06:35:27;28.30;99.90
18950;DHT22;9608;49.288;8.130;2023-07-09T06:37:53;28.30;99.90
18950;DHT22;9608;49.288;8.130;2023-07-09T06:40:20;28.50;99.90
18950;DHT22;9608;49.288;8.130;2023-07-09T06:42:47;28.30;99.90
18950;DHT22;9608;49.288;8.130;2023-07-09T06:45:14;28.20;99.90
18950;DHT22;9608;49.288;8.130;2023-07-09T06:47:40;28.30;99.90
18950;DHT22;9608;49.288;8.130;2023-07-09T06:50:09;28.30;99.90
18950;DHT22;9608;49.288;8.130;2023-07-09T06:52:36;28.30;99.90
18950;DHT22;9608;49.288;8.130;2023-07-09T06:55:03;28.40;99.90
18950;DHT22;9608;49.288;8.130;2023-07-09T06:57:30;28.30;99.90
18950;DHT22;9608;49.288;8.130;2023-07-09T06:59:57;28.30;99.90
18950;DHT22;9608;49.288;8.130;2023-07-09T07:02:23;28.30;99.90
18950;DHT22;9608;49.288;8.130;2023-07-09T07:04:50;28.40;99.90
18950;DHT22;9608;49.288;8.130;2023-07-09T07:07:19;28.60;99.90
18950;DHT22;9608;49.288;8.130;2023-07-09T07:09:46;28.50;99.90
18950;DHT22;9608;49.288;8.130;2023-07-09T07:12:22;28.70;99.90
18950;DHT22;9608;49.288;8.130;2023-07-09T07:14:49;28.60;99.90
18950;DHT22;9608;49.288;8.130;2023-07-09T07:17:16;28.70;99.90
18950;DHT22;9608;49.288;8.130;2023-07-09T07:19:43;28.70;99.90
18950;DHT22;9608;49.288;8.130;2023-07-09T07:22:10;28.80;99.90
18950;DHT22;9608;49.288;8.130;2023-07-09T07:24:38;28.80;99.90
18950;DHT22;9608;49.288;8.130;2023-07-09T07:27:05;28.70;99.90
18950;DHT22;9608;49.288;8.130;2023-07-09T07:29:32;28.80;99.90
18950;DHT22;9608;49.288;8.130;2023-07-09T07:31:59;28.90;99.90
18950;DHT22;9608;49.288;8.130;2023-07-09T07:34:26;29.00;99.90
18950;DHT22;9608;49.288;8.130;2023-07-09T07:36:53;29.10;99.90
18950;DHT22;9608;49.288;8.130;2023-07-09T07:39:20;29.30;99.90
18950;DHT22;9608;49.288;8.130;2023-07-09T07:41:48;29.60;99.90
18950;DHT22;9608;49.288;8.130;2023-07-09T07:44:16;29.80;99.90
18950;DHT22;9608;49.288;8.130;2023-07-09T07:46:43;30.00;99.90
18950;DHT22;9608;49.288;8.130;2023-07-09T07:49:10;29.90;99.90
18950;DHT22;9608;49.288;8.130;2023-07-09T07:51:37;30.00;99.90
18950;DHT22;9608;49.288;8.130;2023-07-09T07:54:04;30.20;99.90
18950;DHT22;9608;49.288;8.130;2023-07-09T07:56:31;30.60;99.90
18950;DHT22;9608;49.288;8.130;2023-07-09T07:58:59;30.60;99.90
18950;DHT22;9608;49.288;8.130;2023-07-09T08:01:26;30.80;99.90
18950;DHT22;9608;49.288;8.130;2023-07-09T08:03:53;31.00;99.90
18950;DHT22;9608;49.288;8.130;2023-07-09T08:06:20;31.00;99.90
18950;DHT22;9608;49.288;8.130;2023-07-09T08:08:46;31.10;99.90
18950;DHT22;9608;49.288;8.130;2023-07-09T08:11:14;31.00;99.90
18950;DHT22;9608;49.288;8.130;2023-07-09T08:13:41;31.10;99.90
18950;DHT22;9608;49.288;8.130;2023-07-09T08:16:09;30.90;99.90
18950;DHT22;9608;49.288;8.130;2023-07-09T08:18:37;31.10;99.90
18950;DHT22;9608;49.288;8.130;2023-07-09T08:21:04;31.00;99.90
18950;DHT22;9608;49.288;8.130;2023-07-09T08:23:31;31.20;99.90
18950;DHT22;9608;49.288;8.130;2023-07-09T08:25:59;31.20;99.90
18950;DHT22;9608;49.288;8.130;2023-07-09T08:28:28;31.30;99.90
18950;DHT22;9608;49.288;8.130;2023-07-09T08:30:55;31.50;99.90
18950;DHT22;9608;49.288;8.130;2023-07-09T08:33:24;31.90;99.90
18950;DHT22;9608;49.288;8.130;2023-07-09T08:35:52;31.70;99.90
18950;DHT22;9608;49.288;8.130;2023-07-09T08:38:19;31.90;99.90
18950;DHT22;9608;49.288;8.130;2023-07-09T08:40:53;32.20;99.90
18950;DHT22;9608;49.288;8.130;2023-07-09T08:43:29;32.10;99.90
18950;DHT22;9608;49.288;8.130;2023-07-09T08:46:03;31.90;99.90
18950;DHT22;9608;49.288;8.130;2023-07-09T08:48:35;32.20;99.90
18950;DHT22;9608;49.288;8.130;2023-07-09T08:51:08;32.40;99.90
18950;DHT22;9608;49.288;8.130;2023-07-09T08:53:42;32.50;99.90
18950;DHT22;9608;49.288;8.130;2023-07-09T08:56:10;32.60;99.90
18950;DHT22;9608;49.288;8.130;2023-07-09T08:58:38;32.70;99.90
18950;DHT22;9608;49.288;8.130;2023-07-09T09:01:14;32.60;99.90
18950;DHT22;9608;49.288;8.130;2023-07-09T09:03:46;32.60;99.90
18950;DHT22;9608;49.288;8.130;2023-07-09T09:06:16;32.80;99.90
18950;DHT22;9608;49.288;8.130;2023-07-09T09:08:52;32.90;99.90
18950;DHT22;9608;49.288;8.130;2023-07-09T09:11:25;33.00;99.90
18950;DHT22;9608;49.288;8.130;2023-07-09T09:14:01;33.20;99.90
18950;DHT22;9608;49.288;8.130;2023-07-09T09:16:32;33.40;99.90
18950;DHT22;9608;49.288;8.130;2023-07-09T09:19:01;33.70;99.90
18950;DHT22;9608;49.288;8.130;2023-07-09T09:21:32;33.90;99.90
18950;DHT22;9608;49.288;8.130;2023-07-09T09:24:12;34.10;99.90
18950;DHT22;9608;49.288;8.130;2023-07-09T09:26:42;34.30;99.90
18950;DHT22;9608;49.288;8.130;2023-07-09T09:29:11;34.30;99.60
18950;DHT22;9608;49.288;8.130;2023-07-09T09:31:38;34.20;99.90
18950;DHT22;9608;49.288;8.130;2023-07-09T09:34:17;34.40;99.80
18950;DHT22;9608;49.288;8.130;2023-07-09T09:36:44;34.50;98.90
18950;DHT22;9608;49.288;8.130;2023-07-09T09:39:11;34.70;98.80
18950;DHT22;9608;49.288;8.130;2023-07-09T09:41:38;34.90;98.20
18950;DHT22;9608;49.288;8.130;2023-07-09T09:44:05;34.70;98.00
18950;DHT22;9608;49.288;8.130;2023-07-09T09:46:33;34.70;97.10
18950;DHT22;9608;49.288;8.130;2023-07-09T09:49:01;34.70;96.80
18950;DHT22;9608;49.288;8.130;2023-07-09T09:51:30;34.20;98.20
18950;DHT22;9608;49.288;8.130;2023-07-09T09:53:59;34.20;98.20
18950;DHT22;9608;49.288;8.130;2023-07-09T09:56:28;34.30;97.70
18950;DHT22;9608;49.288;8.130;2023-07-09T09:58:57;34.50;97.10
18950;DHT22;9608;49.288;8.130;2023-07-09T10:01:27;34.60;96.00
18950;DHT22;9608;49.288;8.130;2023-07-09T10:03:57;34.70;96.30
18950;DHT22;9608;49.288;8.130;2023-07-09T10:06:37;34.90;96.10
18950;DHT22;9608;49.288;8.130;2023-07-09T10:09:13;35.20;95.10
18950;DHT22;9608;49.288;8.130;2023-07-09T10:11:45;35.30;95.80
18950;DHT22;9608;49.288;8.130;2023-07-09T10:14:26;35.20;95.40
18950;DHT22;9608;49.288;8.130;2023-07-09T10:17:00;35.30;93.40
18950;DHT22;9608;49.288;8.130;2023-07-09T10:19:35;35.20;93.20
18950;DHT22;9608;49.288;8.130;2023-07-09T10:22:12;35.00;92.90
18950;DHT22;9608;49.288;8.130;2023-07-09T10:24:50;35.10;92.10
18950;DHT22;9608;49.288;8.130;2023-07-09T10:27:25;35.20;92.10
18950;DHT22;9608;49.288;8.130;2023-07-09T10:30:20;35.20;91.30
18950;DHT22;9608;49.288;8.130;2023-07-09T10:32:59;35.10;91.30
18950;DHT22;9608;49.288;8.130;2023-07-09T10:35:38;35.20;90.60
18950;DHT22;9608;49.288;8.130;2023-07-09T10:38:21;35.40;90.40
18950;DHT22;9608;49.288;8.130;2023-07-09T10:40:53;35.70;90.80
18950;DHT22;9608;49.288;8.130;2023-07-09T10:43:28;35.90;88.90
18950;DHT22;9608;49.288;8.130;2023-07-09T10:46:01;35.80;88.90
18950;DHT22;9608;49.288;8.130;2023-07-09T10:48:34;35.60;89.00
18950;DHT22;9608;49.288;8.130;2023-07-09T10:51:02;35.50;85.50
18950;DHT22;9608;49.288;8.130;2023-07-09T10:53:36;35.60;85.70
18950;DHT22;9608;49.288;8.130;2023-07-09T10:56:09;35.40;83.20
18950;DHT22;9608;49.288;8.130;2023-07-09T10:58:41;35.10;86.00
18950;DHT22;9608;49.288;8.130;2023-07-09T11:01:12;35.20;85.90
18950;DHT22;9608;49.288;8.130;2023-07-09T11:03:43;35.60;83.20
18950;DHT22;9608;49.288;8.130;2023-07-09T11:06:16;35.80;81.20
18950;DHT22;9608;49.288;8.130;2023-07-09T11:08:47;35.60;81.30
18950;DHT22;9608;49.288;8.130;2023-07-09T11:11:25;35.60;80.70
18950;DHT22;9608;49.288;8.130;2023-07-09T11:13:56;35.70;80.20
18950;DHT22;9608;49.288;8.130;2023-07-09T11:16:29;35.80;80.10
18950;DHT22;9608;49.288;8.130;2023-07-09T11:18:59;35.90;78.00
18950;DHT22;9608;49.288;8.130;2023-07-09T11:21:27;35.80;76.70
18950;DHT22;9608;49.288;8.130;2023-07-09T11:23:57;36.10;75.00
18950;DHT22;9608;49.288;8.130;2023-07-09T11:26:27;36.20;73.80
18950;DHT22;9608;49.288;8.130;2023-07-09T11:28:56;36.40;74.20
18950;DHT22;9608;49.288;8.130;2023-07-09T11:31:36;36.70;72.90
18950;DHT22;9608;49.288;8.130;2023-07-09T11:34:09;37.00;70.50
18950;DHT22;9608;49.288;8.130;2023-07-09T11:36:46;36.90;71.70
18950;DHT22;9608;49.288;8.130;2023-07-09T11:39:20;37.10;71.70
18950;DHT22;9608;49.288;8.130;2023-07-09T11:41:47;37.40;68.50
18950;DHT22;9608;49.288;8.130;2023-07-09T11:44:17;37.50;67.90
18950;DHT22;9608;49.288;8.130;2023-07-09T11:46:58;37.60;66.30
18950;DHT22;9608;49.288;8.130;2023-07-09T11:49:30;37.80;66.00
18950;DHT22;9608;49.288;8.130;2023-07-09T11:52:02;37.90;60.90
18950;DHT22;9608;49.288;8.130;2023-07-09T11:54:35;37.80;58.90
18950;DHT22;9608;49.288;8.130;2023-07-09T11:57:05;37.60;59.40
18950;DHT22;9608;49.288;8.130;2023-07-09T11:59:38;37.60;60.30
18950;DHT22;9608;49.288;8.130;2023-07-09T12:02:05;37.70;59.80
18950;DHT22;9608;49.288;8.130;2023-07-09T12:04:34;37.70;60.40
18950;DHT22;9608;49.288;8.130;2023-07-09T12:07:02;37.50;60.40
18950;DHT22;9608;49.288;8.130;2023-07-09T12:09:33;37.50;60.30
18950;DHT22;9608;49.288;8.130;2023-07-09T12:14:44;37.40;59.70
18950;DHT22;9608;49.288;8.130;2023-07-09T12:17:11;37.60;58.40
18950;DHT22;9608;49.288;8.130;2023-07-09T12:19:38;37.80;59.30
18950;DHT22;9608;49.288;8.130;2023-07-09T12:22:09;37.90;59.10
18950;DHT22;9608;49.288;8.130;2023-07-09T12:24:38;38.10;58.30
18950;DHT22;9608;49.288;8.130;2023-07-09T12:27:20;38.30;58.40
18950;DHT22;9608;49.288;8.130;2023-07-09T12:29:47;38.30;57.90
18950;DHT22;9608;49.288;8.130;2023-07-09T12:32:16;38.40;57.40
18950;DHT22;9608;49.288;8.130;2023-07-09T12:34:47;38.60;56.40
18950;DHT22;9608;49.288;8.130;2023-07-09T12:37:14;38.40;55.80
18950;DHT22;9608;49.288;8.130;2023-07-09T12:39:42;37.90;56.40
18950;DHT22;9608;49.288;8.130;2023-07-09T12:42:15;37.90;57.40
18950;DHT22;9608;49.288;8.130;2023-07-09T12:44:44;38.30;57.40
18950;DHT22;9608;49.288;8.130;2023-07-09T12:47:13;38.60;56.80
18950;DHT22;9608;49.288;8.130;2023-07-09T12:49:42;38.70;56.90
18950;DHT22;9608;49.288;8.130;2023-07-09T12:52:14;38.70;56.40
18950;DHT22;9608;49.288;8.130;2023-07-09T12:54:41;38.80;55.60
18950;DHT22;9608;49.288;8.130;2023-07-09T12:57:14;39.10;55.90
18950;DHT22;9608;49.288;8.130;2023-07-09T12:59:45;39.10;55.70
18950;DHT22;9608;49.288;8.130;2023-07-09T13:02:16;39.00;57.00
18950;DHT22;9608;49.288;8.130;2023-07-09T13:04:43;39.10;56.20
18950;DHT22;9608;49.288;8.130;2023-07-09T13:07:36;39.20;55.50
18950;DHT22;9608;49.288;8.130;2023-07-09T13:10:15;39.20;55.40
18950;DHT22;9608;49.288;8.130;2023-07-09T13:12:46;39.40;55.50
18950;DHT22;9608;49.288;8.130;2023-07-09T13:15:23;39.20;55.20
18950;DHT22;9608;49.288;8.130;2023-07-09T13:17:57;39.00;57.10
18950;DHT22;9608;49.288;8.130;2023-07-09T13:20:24;39.10;55.40
18950;DHT22;9608;49.288;8.130;2023-07-09T13:22:50;38.30;55.70
18950;DHT22;9608;49.288;8.130;2023-07-09T13:25:17;38.30;56.90
18950;DHT22;9608;49.288;8.130;2023-07-09T13:27:44;38.80;55.10
18950;DHT22;9608;49.288;8.130;2023-07-09T13:30:11;39.30;54.50
18950;DHT22;9608;49.288;8.130;2023-07-09T13:32:39;39.70;53.60
18950;DHT22;9608;49.288;8.130;2023-07-09T13:35:13;40.00;53.60
18950;DHT22;9608;49.288;8.130;2023-07-09T13:37:41;40.30;53.30
18950;DHT22;9608;49.288;8.130;2023-07-09T13:40:11;40.40;52.50
18950;DHT22;9608;49.288;8.130;2023-07-09T13:42:38;40.70;51.90
18950;DHT22;9608;49.288;8.130;2023-07-09T13:45:15;41.10;51.70
18950;DHT22;9608;49.288;8.130;2023-07-09T13:47:43;40.90;51.50
18950;DHT22;9608;49.288;8.130;2023-07-09T13:50:10;41.00;51.20
18950;DHT22;9608;49.288;8.130;2023-07-09T13:52:37;41.00;51.50
18950;DHT22;9608;49.288;8.130;2023-07-09T13:55:04;40.70;50.60
18950;DHT22;9608;49.288;8.130;2023-07-09T13:57:31;40.10;50.90
18950;DHT22;9608;49.288;8.130;2023-07-09T13:59:58;40.00;51.50
18950;DHT22;9608;49.288;8.130;2023-07-09T14:02:26;40.10;51.20
18950;DHT22;9608;49.288;8.130;2023-07-09T14:04:59;39.70;50.90
18950;DHT22;9608;49.288;8.130;2023-07-09T14:07:28;39.70;51.50
18950;DHT22;9608;49.288;8.130;2023-07-09T14:09:57;39.70;51.20
18950;DHT22;9608;49.288;8.130;2023-07-09T14:12:24;39.10;51.20
18950;DHT22;9608;49.288;8.130;2023-07-09T14:14:52;39.10;51.20
18950;DHT22;9608;49.288;8.130;2023-07-09T14:17:19;39.10;51.30
18950;DHT22;9608;49.288;8.130;2023-07-09T14:19:47;39.30;51.70
18950;DHT22;9608;49.288;8.130;2023-07-09T14:22:26;39.50;51.60
18950;DHT22;9608;49.288;8.130;2023-07-09T14:24:54;39.50;52.10
18950;DHT22;9608;49.288;8.130;2023-07-09T14:27:20;39.70;51.50
18950;DHT22;9608;49.288;8.130;2023-07-09T14:29:47;39.60;51.20
18950;DHT22;9608;49.288;8.130;2023-07-09T14:32:32;39.70;51.20
18950;DHT22;9608;49.288;8.130;2023-07-09T14:35:00;39.70;51.20
18950;DHT22;9608;49.288;8.130;2023-07-09T14:37:29;39.80;50.10
18950;DHT22;9608;49.288;8.130;2023-07-09T14:39:55;40.10;50.80
18950;DHT22;9608;49.288;8.130;2023-07-09T14:42:22;40.10;50.60
18950;DHT22;9608;49.288;8.130;2023-07-09T14:44:49;39.70;50.20
18950;DHT22;9608;49.288;8.130;2023-07-09T14:47:18;39.30;50.10
18950;DHT22;9608;49.288;8.130;2023-07-09T14:49:45;39.30;50.30
18950;DHT22;9608;49.288;8.130;2023-07-09T14:52:14;39.40;50.70
18950;DHT22;9608;49.288;8.130;2023-07-09T14:54:44;39.50;50.20
18950;DHT22;9608;49.288;8.130;2023-07-09T14:57:18;39.40;50.30
18950;DHT22;9608;49.288;8.130;2023-07-09T14:59:45;39.60;50.80
18950;DHT22;9608;49.288;8.130;2023-07-09T15:02:22;39.70;51.40
18950;DHT22;9608;49.288;8.130;2023-07-09T15:04:49;39.40;50.20
18950;DHT22;9608;49.288;8.130;2023-07-09T15:07:16;39.20;50.30
18950;DHT22;9608;49.288;8.130;2023-07-09T15:09:44;39.40;50.70
18950;DHT22;9608;49.288;8.130;2023-07-09T15:12:25;39.80;50.80
18950;DHT22;9608;49.288;8.130;2023-07-09T15:14:53;40.00;50.00
18950;DHT22;9608;49.288;8.130;2023-07-09T15:17:20;40.00;49.50
18950;DHT22;9608;49.288;8.130;2023-07-09T15:19:47;39.80;49.60
18950;DHT22;9608;49.288;8.130;2023-07-09T15:22:23;39.40;49.60
18950;DHT22;9608;49.288;8.130;2023-07-09T15:24:53;39.00;50.50
18950;DHT22;9608;49.288;8.130;2023-07-09T15:27:19;38.50;50.50
18950;DHT22;9608;49.288;8.130;2023-07-09T15:29:46;38.10;51.20
18950;DHT22;9608;49.288;8.130;2023-07-09T15:32:12;37.80;51.90
18950;DHT22;9608;49.288;8.130;2023-07-09T15:34:39;37.40;52.50
18950;DHT22;9608;49.288;8.130;2023-07-09T15:37:11;37.20;52.90
18950;DHT22;9608;49.288;8.130;2023-07-09T15:39:39;37.10;53.00
18950;DHT22;9608;49.288;8.130;2023-07-09T15:42:10;37.00;53.00
18950;DHT22;9608;49.288;8.130;2023-07-09T15:44:37;37.00;53.10
18950;DHT22;9608;49.288;8.130;2023-07-09T15:47:05;37.10;53.30
18950;DHT22;9608;49.288;8.130;2023-07-09T15:49:34;37.30;53.60
18950;DHT22;9608;49.288;8.130;2023-07-09T15:52:01;37.30;53.20
18950;DHT22;9608;49.288;8.130;2023-07-09T15:54:28;37.30;53.70
18950;DHT22;9608;49.288;8.130;2023-07-09T15:56:55;37.50;54.00
18950;DHT22;9608;49.288;8.130;2023-07-09T15:59:29;37.60;53.30